Fredericksbg, Ohio
Current Conditions -  °F | °C
As of 6:53 PM on Tuesday 25 Nov 2014 (Local Time) from KPHD Reporting Station
Clear Clear  
Wind Chill: 33°   Ceiling: Unl
Heat Index: 37°   Visibility: 10mi
Dew Point: 25°   Wind: 5mph
Humidity: 62%   Direction: 280°W
Pressure: 30.15"   Gusts: NA
Location:  40.6693°N, 81.8428°W
Report Text: KPHD 252353Z AUTO 28004KT 10SM CLR 03/M04 A3015 RMK AO2 SLP218 T00281039 10056 20028 53015
Loading
Personal Weather Stations






























Interactive Weather Map New forecast layout! Learn more

10-Day Weather Forecast

Advertisements
Track Severe Weather on mobile